Terminal Aerodrome Forecast
Issued by NWS Duluth, MN

Home | Current Version | Previous Version | Text Only | Print | Product List | Glossary On
Versions: 1 2 3 4 5 6 7 8 9 10 11 12 13 14 15 16 17 18 19 20 21 22 23 24 25 26 27 28 29 30 31 32 33
000
FTUS43 KDLH 240900 AAA
TAFDLH
TAF AMD
KDLH 240913Z 2409/2506 31011KT P6SM SCT015 OVC025
     FM241100 30006KT P6SM -SN SCT014 OVC019
     FM241500 30005KT P6SM OVC010
     FM242100 03006KT P6SM -SN OVC007=

USA.gov is the U.S. government's official web portal to all federal, state and local government web resources and services.